Time;durP1;ratioP1;P1;durP2;ratioP2;P2;SDS_P1;SDS_P2;PMS_P1;PMS_P2;Temp;Humidity;BMP_temperature;BMP_pressure;BME280_temperature;BME280_humidity;BME280_pressure;Samples;Min_cycle;Max_cycle;Signal;HPM_P1;HPM_P2
2022/03/20 00:02:03;;;;;;;16.43;12.03;;;;;;;10.88;37.30;97204.88;5066814;28;20202;-81
2022/03/20 00:04:32;;;;;;;16.00;12.40;;;;;;;10.78;37.17;97209.03;5075865;28;20296;-80
2022/03/20 00:07:00;;;;;;;17.10;12.07;;;;;;;10.70;37.03;97230.88;5074940;28;20239;-79
2022/03/20 00:11:19;;;;;;;19.10;13.20;;;;;;;10.73;37.00;97230.44;5074186;27;20598;-79
2022/03/20 00:13:46;;;;;;;16.93;12.13;;;;;;;10.57;37.47;97210.91;5075961;28;20213;-78
2022/03/20 00:18:27;;;;;;;17.53;12.17;;;;;;;10.71;36.79;97221.72;5099447;27;20305;-80
2022/03/20 00:20:56;;;;;;;17.67;12.37;;;;;;;10.63;37.11;97228.97;5107205;28;20235;-80
2022/03/20 00:23:25;;;;;;;18.93;12.30;;;;;;;10.66;37.08;97219.63;5091586;28;20238;-81
2022/03/20 00:25:53;;;;;;;15.67;11.60;;;;;;;10.62;37.00;97237.31;5091260;28;20227;-77
2022/03/20 00:28:23;;;;;;;16.60;11.70;;;;;;;10.63;36.56;97223.56;5104814;28;20200;-81
2022/03/20 00:30:50;;;;;;;18.00;11.23;;;;;;;10.56;36.52;97230.84;5092775;28;20216;-79
2022/03/20 00:33:17;;;;;;;16.50;11.60;;;;;;;10.56;36.69;97230.03;5092452;28;20315;-81
2022/03/20 00:35:46;;;;;;;17.10;12.20;;;;;;;10.50;37.07;97220.91;5088899;28;20205;-79
2022/03/20 00:38:13;;;;;;;21.50;11.30;;;;;;;10.51;36.65;97229.84;5097111;28;20282;-77
2022/03/20 00:40:40;;;;;;;16.67;11.03;;;;;;;10.58;36.27;97233.34;5094605;28;20271;-80
2022/03/20 00:43:08;;;;;;;17.30;12.73;;;;;;;10.52;36.67;97234.19;5102085;28;20287;-80
2022/03/20 00:45:36;;;;;;;17.23;11.90;;;;;;;10.48;36.10;97239.16;5098967;28;20205;-82
2022/03/20 00:48:04;;;;;;;17.73;12.43;;;;;;;10.43;36.71;97252.47;5089886;28;20212;-80
2022/03/20 00:50:31;;;;;;;20.00;12.27;;;;;;;10.45;36.43;97239.59;5099340;28;20210;-81
2022/03/20 00:53:00;;;;;;;17.17;11.57;;;;;;;10.32;37.50;97249.56;5091730;28;20196;-80
2022/03/20 00:55:29;;;;;;;18.80;12.57;;;;;;;10.28;37.32;97235.66;5102188;27;20272;-78
2022/03/20 01:01:18;;;;;;;18.43;11.80;;;;;;;10.37;36.92;97261.41;5092416;27;20427;-80
2022/03/20 01:03:45;;;;;;;19.40;12.60;;;;;;;10.32;36.89;97269.28;5072974;28;20303;-81
2022/03/20 01:06:13;;;;;;;17.47;12.50;;;;;;;10.23;37.43;97257.84;5086065;28;20197;-81
2022/03/20 01:08:40;;;;;;;18.27;12.33;;;;;;;10.21;37.17;97267.19;5068091;28;20204;-79
2022/03/20 01:11:09;;;;;;;17.57;11.50;;;;;;;10.15;37.39;97271.50;5073433;28;20229;-80
2022/03/20 01:13:37;;;;;;;14.17;10.93;;;;;;;10.24;36.89;97270.31;5077154;28;20213;-80
2022/03/20 01:18:12;;;;;;;17.73;12.57;;;;;;;10.18;37.04;97268.44;5093490;27;2029467;-80
2022/03/20 01:20:39;;;;;;;15.90;11.43;;;;;;;10.23;36.69;97281.31;5124543;27;20301;-81
2022/03/20 01:23:06;;;;;;;18.77;13.50;;;;;;;10.09;37.12;97276.91;5125617;27;20195;-80
2022/03/20 01:25:33;;;;;;;16.53;12.20;;;;;;;10.11;37.34;97272.13;5127206;27;20268;-81
2022/03/20 01:28:00;;;;;;;19.23;13.17;;;;;;;10.11;37.11;97272.13;5121406;27;20210;-80
2022/03/20 01:30:28;;;;;;;16.43;11.70;;;;;;;10.07;37.39;97292.47;5113689;27;20229;-76
2022/03/20 01:32:54;;;;;;;18.10;12.30;;;;;;;10.03;37.60;97278.56;5118614;27;20207;-80
2022/03/20 01:35:23;;;;;;;15.70;11.80;;;;;;;9.94;37.02;97287.88;5121919;27;20329;-77
2022/03/20 01:37:50;;;;;;;16.53;11.17;;;;;;;10.09;36.30;97271.50;5137999;27;20215;-75
2022/03/20 01:40:18;;;;;;;16.07;11.33;;;;;;;10.04;36.57;97274.81;5142813;27;20198;-78
2022/03/20 01:42:46;;;;;;;14.43;11.03;;;;;;;9.99;36.91;97287.25;5123002;27;20207;-80
2022/03/20 01:45:18;;;;;;;18.00;11.77;;;;;;;10.02;36.81;97284.16;5143118;27;20387;-77
2022/03/20 01:47:47;;;;;;;18.63;12.13;;;;;;;9.86;37.53;97283.50;5138147;27;20226;-76
2022/03/20 01:50:14;;;;;;;15.60;11.17;;;;;;;9.94;36.14;97268.16;5115435;27;20205;-80
2022/03/20 01:52:45;;;;;;;15.23;11.20;;;;;;;9.93;36.37;97275.41;5122125;27;20199;-80
2022/03/20 01:55:13;;;;;;;17.70;11.67;;;;;;;9.96;36.17;97275.00;5120120;27;20214;-80
2022/03/20 01:57:40;;;;;;;18.27;12.03;;;;;;;9.96;36.50;97284.94;5142148;27;20230;-79
2022/03/20 02:00:09;;;;;;;14.40;11.13;;;;;;;9.95;36.52;97284.16;5124752;27;20297;-80
2022/03/20 02:02:40;;;;;;;17.63;10.97;;;;;;;9.93;35.94;97267.31;5146130;27;20221;-81
2022/03/20 02:05:09;;;;;;;16.63;11.60;;;;;;;9.97;35.63;97283.91;5118735;27;20210;-81
2022/03/20 02:07:37;;;;;;;15.27;11.73;;;;;;;9.88;36.23;97292.19;5122727;27;20207;-78
2022/03/20 02:10:08;;;;;;;14.33;10.87;;;;;;;9.83;35.96;97288.47;5142935;27;20202;-80
2022/03/20 02:12:36;;;;;;;15.27;11.17;;;;;;;9.83;35.77;97283.06;5124950;27;20272;-80
2022/03/20 02:15:05;;;;;;;18.70;10.47;;;;;;;9.79;35.99;97293.41;5123130;27;21026;-76
2022/03/20 02:17:32;;;;;;;13.93;9.50;;;;;;;9.77;35.75;97294.66;5120793;28;20242;-81
2022/03/20 02:20:52;;;;;;;16.23;11.00;;;;;;;9.85;35.20;97289.94;5071357;27;20294;-78
2022/03/20 02:23:21;;;;;;;19.80;10.73;;;;;;;9.84;35.25;97293.66;5036692;27;20210;-79
2022/03/20 02:27:58;;;;;;;16.20;10.57;;;;;;;9.79;35.55;97282.63;5132454;27;20568;-80
2022/03/20 02:33:37;;;;;;;15.50;10.73;;;;;;;9.68;35.11;97296.72;5097255;27;20297;-78
2022/03/20 02:36:04;;;;;;;16.00;10.40;;;;;;;9.64;35.89;97283.81;5093190;28;20201;-77
2022/03/20 02:38:33;;;;;;;16.63;11.67;;;;;;;9.63;35.58;97293.75;5097152;28;20201;-80
2022/03/20 02:41:14;;;;;;;15.23;11.77;;;;;;;9.73;34.21;97299.63;5091477;28;20200;-82
2022/03/20 02:43:49;;;;;;;13.03;10.07;;;;;;;9.71;34.36;97296.28;5104778;27;20213;-82
2022/03/20 02:46:17;;;;;;;13.93;9.80;;;;;;;9.70;34.22;97300.00;5096131;28;20224;-81
2022/03/20 02:50:33;;;;;;;14.67;10.90;;;;;;;9.49;34.20;97338.72;5112207;27;20568;-77
2022/03/20 02:53:02;;;;;;;14.53;10.40;;;;;;;9.53;34.00;97287.91;5117137;28;20211;-79
2022/03/20 02:55:30;;;;;;;16.43;10.87;;;;;;;9.50;34.60;97288.34;5122027;27;20192;-80
2022/03/20 02:58:01;;;;;;;14.93;9.93;;;;;;;9.52;34.41;97320.50;5119407;28;20294;-79
2022/03/20 03:02:45;;;;;;;17.50;10.77;;;;;;;9.43;34.37;97314.44;5123471;27;20303;-81
2022/03/20 03:05:14;;;;;;;13.67;10.13;;;;;;;9.52;33.81;97332.09;5091053;28;20227;-79
2022/03/20 03:13:15;;;;;;;13.97;10.70;;;;;;;9.53;32.83;97314.88;5095061;28;20273;-81
2022/03/20 03:15:42;;;;;;;14.73;9.63;;;;;;;9.48;32.91;97328.13;5095090;28;20212;-81
2022/03/20 03:18:11;;;;;;;14.13;10.37;;;;;;;9.57;32.42;97335.03;5094296;28;20200;-79
2022/03/20 03:20:38;;;;;;;14.13;9.43;;;;;;;9.53;32.45;97327.56;5090695;28;20288;-81
2022/03/20 03:23:06;;;;;;;12.93;9.77;;;;;;;9.51;32.34;97343.91;5097854;28;20208;-81
2022/03/20 03:25:36;;;;;;;13.73;9.80;;;;;;;9.48;32.06;97338.91;5090631;28;20223;-80
2022/03/20 03:28:04;;;;;;;14.87;9.53;;;;;;;9.49;32.37;97335.19;5093197;28;20204;-81
2022/03/20 03:42:11;;;;;;;13.23;9.33;;;;;;;9.37;32.24;97361.88;5057283;28;20571;-79
2022/03/20 03:44:39;;;;;;;12.80;9.63;;;;;;;9.40;31.97;97341.78;5058367;28;20202;-79
2022/03/20 03:47:06;;;;;;;14.90;9.47;;;;;;;9.39;31.86;97354.41;5045575;28;20206;-80
2022/03/20 03:49:34;;;;;;;16.70;9.37;;;;;;;9.35;32.11;97355.03;5047816;28;20212;-81
2022/03/20 03:52:02;;;;;;;12.23;8.67;;;;;;;9.34;31.88;97361.44;5049494;28;20228;-79
2022/03/20 03:54:29;;;;;;;16.53;9.77;;;;;;;9.33;31.96;97338.22;5033986;28;20206;-80
2022/03/20 03:56:58;;;;;;;12.67;8.87;;;;;;;9.36;31.60;97353.97;5057616;28;20210;-81
2022/03/20 04:00:05;;;;;;;13.77;8.87;;;;;;;9.25;31.93;97331.13;5148927;27;20288;-78
2022/03/20 04:02:33;;;;;;;11.97;9.03;;;;;;;9.29;31.79;97361.19;5116692;27;20234;-80
2022/03/20 04:05:00;;;;;;;13.77;10.20;;;;;;;9.25;31.83;97360.75;5115373;27;20215;-78
2022/03/20 04:07:27;;;;;;;12.83;8.40;;;;;;;9.25;31.80;97343.75;5109734;28;20231;-80
2022/03/20 04:09:55;;;;;;;14.53;9.63;;;;;;;9.27;31.93;97374.06;5122013;27;20203;-79
2022/03/20 04:12:22;;;;;;;14.77;9.70;;;;;;;9.26;31.57;97375.91;5112129;27;20212;-80
2022/03/20 04:14:49;;;;;;;13.50;9.40;;;;;;;9.18;32.15;97353.66;5109778;28;20214;-80
2022/03/20 04:17:18;;;;;;;12.27;8.83;;;;;;;9.16;31.86;97380.81;5113641;27;20300;-78
2022/03/20 04:19:45;;;;;;;15.20;8.90;;;;;;;9.19;31.73;97355.31;5112385;27;20230;-78
2022/03/20 04:22:13;;;;;;;14.53;8.73;;;;;;;9.17;31.83;97358.22;5112152;27;20314;-81
2022/03/20 04:24:40;;;;;;;13.47;9.30;;;;;;;9.16;31.77;97353.84;5136730;27;20245;-80
2022/03/20 04:27:08;;;;;;;13.50;9.47;;;;;;;9.13;31.85;97350.72;5104653;27;20267;-80
2022/03/20 04:29:35;;;;;;;11.60;7.90;;;;;;;9.13;31.82;97359.63;5133064;27;20219;-80
2022/03/20 04:32:02;;;;;;;12.93;8.47;;;;;;;9.07;32.13;97357.72;5102049;28;20205;-82
2022/03/20 04:34:35;;;;;;;18.40;8.83;;;;;;;9.18;31.31;97359.06;5105667;28;20269;-81
2022/03/20 04:37:04;;;;;;;15.07;9.43;;;;;;;9.11;31.99;97385.94;5101865;28;20203;-81
2022/03/20 04:39:31;;;;;;;12.63;8.43;;;;;;;9.04;31.59;97380.50;5099363;28;20246;-80
2022/03/20 04:41:59;;;;;;;14.73;9.17;;;;;;;9.01;32.40;97380.91;5095255;28;20224;-81
2022/03/20 04:44:27;;;;;;;13.13;9.50;;;;;;;8.98;32.35;97367.81;5132401;27;20215;-81
2022/03/20 04:46:54;;;;;;;12.23;8.63;;;;;;;9.02;32.26;97382.56;5101640;28;20204;-82
2022/03/20 05:00:32;;;;;;;10.67;8.50;;;;;;;8.94;31.88;97398.84;5101193;27;20556;-80
2022/03/20 05:02:59;;;;;;;11.77;8.17;;;;;;;8.98;31.64;97402.00;5095006;28;20215;-77
2022/03/20 05:05:28;;;;;;;13.73;8.57;;;;;;;8.95;31.50;97397.84;5092056;28;20196;-79
2022/03/20 05:07:55;;;;;;;13.00;8.53;;;;;;;9.02;31.34;97384.41;5097148;28;20204;-79
2022/03/20 05:15:12;;;;;;;13.53;9.10;;;;;;;8.91;31.78;97385.78;5110435;27;20324;-79
2022/03/20 05:17:39;;;;;;;10.77;7.30;;;;;;;8.92;31.17;97384.78;5094598;27;20306;-81
2022/03/20 05:20:07;;;;;;;12.53;8.97;;;;;;;8.87;31.36;97395.28;5089623;28;20208;-78
2022/03/20 05:22:38;;;;;;;12.63;9.10;;;;;;;8.89;31.61;97395.09;5101762;28;20188;-80
2022/03/20 05:25:08;;;;;;;12.83;8.67;;;;;;;8.86;31.80;97393.59;5097273;28;20207;-79
2022/03/20 05:27:35;;;;;;;15.53;9.03;;;;;;;8.85;31.58;97402.72;5094310;28;20221;-80
2022/03/20 05:30:03;;;;;;;12.50;9.13;;;;;;;8.89;31.37;97408.56;5101438;28;20204;-80
2022/03/20 05:32:32;;;;;;;11.40;8.47;;;;;;;8.89;31.22;97405.88;5092052;28;20201;-80
2022/03/20 05:34:59;;;;;;;13.43;9.00;;;;;;;8.87;31.36;97399.81;5094586;28;20220;-78
2022/03/20 05:37:26;;;;;;;12.60;7.97;;;;;;;8.87;31.32;97411.44;5095698;28;20196;-81
2022/03/20 05:39:53;;;;;;;13.23;8.30;;;;;;;8.82;31.86;97407.66;5089397;28;20200;-78
2022/03/20 05:42:20;;;;;;;11.43;8.47;;;;;;;8.79;31.85;97398.09;5104114;28;20215;-80
2022/03/20 05:44:48;;;;;;;14.63;8.27;;;;;;;8.82;31.47;97418.44;5105299;28;20218;-79
2022/03/20 05:49:10;;;;;;;11.47;8.20;;;;;;;8.82;31.20;97419.28;5151105;27;20580;-80
2022/03/20 05:51:37;;;;;;;11.50;8.27;;;;;;;8.80;31.17;97402.47;5158999;27;20214;-79
2022/03/20 05:54:04;;;;;;;13.57;8.47;;;;;;;8.79;31.27;97414.25;5153209;27;20213;-80
2022/03/20 05:59:16;;;;;;;14.00;8.47;;;;;;;8.74;31.68;97427.50;5154385;27;20228;-78
2022/03/20 06:01:44;;;;;;;12.43;7.63;;;;;;;8.75;31.04;97414.84;5156399;27;20242;-77
2022/03/20 06:04:13;;;;;;;12.80;9.23;;;;;;;8.76;31.44;97460.44;5157504;27;20293;-82
2022/03/20 06:06:42;;;;;;;12.60;7.90;;;;;;;8.76;31.42;97452.38;5153218;27;20205;-81
2022/03/20 06:09:09;;;;;;;10.00;7.57;;;;;;;8.77;31.64;97427.09;5159269;27;20233;-81
2022/03/20 06:11:36;;;;;;;12.03;8.57;;;;;;;8.73;31.58;97436.59;5160936;27;20213;-80
2022/03/20 06:14:06;;;;;;;10.33;7.50;;;;;;;8.76;30.71;97446.16;5155726;27;20209;-81
2022/03/20 06:16:34;;;;;;;12.70;7.90;;;;;;;8.76;31.44;97451.53;5159827;27;20225;-81
2022/03/20 06:19:02;;;;;;;13.90;8.97;;;;;;;8.75;31.25;97449.88;5159617;27;20210;-79
2022/03/20 06:21:30;;;;;;;12.03;8.37;;;;;;;8.69;31.68;97454.97;5163995;27;20202;-81
2022/03/20 06:23:57;;;;;;;12.37;8.27;;;;;;;8.65;31.95;97474.41;5157883;27;20347;-81
2022/03/20 06:26:25;;;;;;;11.13;8.27;;;;;;;8.63;32.00;97460.28;5153319;27;20198;-77
2022/03/20 06:28:53;;;;;;;11.83;8.50;;;;;;;8.63;31.60;97460.28;5153264;27;20301;-79
2022/03/20 06:31:20;;;;;;;12.07;7.60;;;;;;;8.77;30.97;97462.09;5157091;27;20198;-77
2022/03/20 06:33:48;;;;;;;12.00;8.03;;;;;;;8.77;31.17;97474.72;5157121;27;20305;-79
2022/03/20 06:36:16;;;;;;;13.13;8.53;;;;;;;8.80;31.22;97475.19;5152568;27;20187;-81
2022/03/20 06:38:44;;;;;;;15.30;8.40;;;;;;;8.76;31.43;97468.53;5156189;27;20199;-82
2022/03/20 06:41:11;;;;;;;12.53;7.70;;;;;;;8.77;31.46;97472.88;5148631;27;20266;-81
2022/03/20 06:43:39;;;;;;;13.90;8.03;;;;;;;8.82;31.17;97473.16;5153221;27;20230;-79
2022/03/20 06:46:07;;;;;;;10.07;7.63;;;;;;;8.82;31.04;97488.47;5159071;27;20284;-81
2022/03/20 06:48:34;;;;;;;12.23;8.23;;;;;;;8.81;31.32;97478.72;5158683;27;20230;-79
2022/03/20 06:51:04;;;;;;;11.83;8.47;;;;;;;8.79;31.15;97489.66;5159664;27;20221;-82
2022/03/20 06:54:51;;;;;;;12.97;7.97;;;;;;;8.84;30.85;97487.25;5081240;27;20290;-80
2022/03/20 06:57:20;;;;;;;11.77;7.87;;;;;;;8.78;31.02;97501.47;5093119;28;20569;-77
2022/03/20 07:00:10;;;;;;;11.77;8.57;;;;;;;8.80;30.97;97496.72;5080414;27;20552;-80
2022/03/20 07:02:49;;;;;;;11.60;7.80;;;;;;;8.80;31.66;97487.81;5050283;28;20213;-80
2022/03/20 07:05:16;;;;;;;12.77;8.70;;;;;;;8.84;30.99;97467.56;5051029;28;20288;-79
2022/03/20 07:07:43;;;;;;;11.30;7.70;;;;;;;8.84;31.16;97506.13;5041738;28;20239;-80
2022/03/20 07:10:10;;;;;;;10.90;7.50;;;;;;;8.97;30.62;97503.53;5055676;28;20215;-79
2022/03/20 07:12:40;;;;;;;13.03;8.20;;;;;;;8.93;30.76;97501.44;5055101;28;20209;-81
2022/03/20 07:15:09;;;;;;;11.90;8.10;;;;;;;8.87;31.08;97502.19;5058597;28;20282;-79
2022/03/20 07:17:37;;;;;;;11.70;8.70;;;;;;;8.94;30.84;97503.91;5055351;28;20210;-80
2022/03/20 07:20:11;;;;;;;12.67;8.70;;;;;;;8.84;31.03;97519.59;5053027;28;20209;-80
2022/03/20 07:22:38;;;;;;;12.93;8.87;;;;;;;8.88;30.43;97487.69;5042871;28;20209;-79
2022/03/20 07:30:33;;;;;;;11.90;8.13;;;;;;;8.96;30.62;97499.19;5071176;28;20221;-81
2022/03/20 07:33:00;;;;;;;10.57;8.10;;;;;;;8.94;30.66;97520.06;5048178;28;20272;-79
2022/03/20 07:35:27;;;;;;;12.90;8.00;;;;;;;8.90;31.02;97497.25;5063354;28;20206;-81
2022/03/20 07:37:54;;;;;;;12.17;7.90;;;;;;;8.85;31.44;97515.84;5070654;28;20198;-81
2022/03/20 07:40:22;;;;;;;10.37;7.87;;;;;;;8.90;31.25;97532.28;5068720;28;20210;-80
2022/03/20 07:42:49;;;;;;;12.37;8.30;;;;;;;8.82;31.80;97520.78;5055649;28;20223;-82
2022/03/20 07:45:16;;;;;;;11.50;7.63;;;;;;;8.83;31.62;97523.28;5061020;28;20206;-80
2022/03/20 07:47:46;;;;;;;10.17;8.23;;;;;;;8.89;31.28;97517.13;5063413;28;20298;-81
2022/03/20 07:50:13;;;;;;;10.67;8.00;;;;;;;8.90;31.14;97510.72;5049836;28;20240;-80
2022/03/20 07:52:40;;;;;;;10.83;7.80;;;;;;;8.96;31.24;97517.19;5050405;28;20237;-81
2022/03/20 07:55:08;;;;;;;10.17;7.13;;;;;;;8.96;31.26;97523.41;5058181;28;20205;-81
2022/03/20 07:57:41;;;;;;;12.47;8.03;;;;;;;8.99;30.95;97533.81;5054777;28;20198;-82
2022/03/20 08:00:09;;;;;;;10.93;8.30;;;;;;;9.05;30.86;97535.75;5052121;28;20257;-81
2022/03/20 08:02:39;;;;;;;11.57;8.07;;;;;;;9.06;30.72;97525.81;5055248;28;20213;-81
2022/03/20 08:05:09;;;;;;;13.47;8.60;;;;;;;9.04;30.96;97507.13;5067732;28;20252;-83
2022/03/20 08:07:37;;;;;;;13.10;8.07;;;;;;;9.02;30.73;97517.25;5058972;28;20206;-83
2022/03/20 08:10:06;;;;;;;12.10;8.63;;;;;;;9.00;30.80;97508.56;5044532;28;20207;-82
2022/03/20 08:13:57;;;;;;;11.13;7.50;;;;;;;8.99;31.14;97509.56;5120070;27;20597;-81
2022/03/20 08:16:26;;;;;;;12.13;8.87;;;;;;;9.08;30.97;97524.59;5082932;28;20217;-80
2022/03/20 08:18:53;;;;;;;11.77;8.30;;;;;;;9.01;31.37;97507.53;5093432;28;20210;-82
2022/03/20 08:21:20;;;;;;;11.33;8.53;;;;;;;9.14;30.71;97530.22;5098546;28;20192;-78
2022/03/20 08:24:55;;;;;;;11.20;8.20;;;;;;;9.11;31.00;97534.13;5087575;27;20314;-83
2022/03/20 08:27:23;;;;;;;10.83;8.27;;;;;;;9.21;30.84;97515.78;5053537;28;20211;-82
2022/03/20 08:29:51;;;;;;;12.53;7.83;;;;;;;9.37;30.40;97525.47;5061799;28;20276;-81
2022/03/20 08:33:43;;;;;;;11.40;7.53;;;;;;;9.53;30.30;97517.09;5076795;27;20578;-82
2022/03/20 08:36:10;;;;;;;12.10;8.07;;;;;;;9.60;30.26;97517.16;5081782;28;20214;-81
2022/03/20 08:38:39;;;;;;;12.23;8.13;;;;;;;9.63;30.22;97509.50;5062365;28;20209;-80
2022/03/20 08:41:06;;;;;;;13.83;8.23;;;;;;;9.73;30.32;97515.41;5068408;28;20201;-79
2022/03/20 08:43:33;;;;;;;11.90;8.47;;;;;;;9.67;30.57;97518.88;5059102;28;20198;-79
2022/03/20 08:46:01;;;;;;;12.67;8.40;;;;;;;9.73;30.20;97523.47;5056984;28;20224;-80
2022/03/20 08:48:28;;;;;;;11.40;8.07;;;;;;;9.68;30.15;97512.47;5059554;28;20206;-82
2022/03/20 08:50:56;;;;;;;9.77;7.63;;;;;;;9.91;29.97;97519.47;5057941;28;20240;-82
2022/03/20 08:53:25;;;;;;;10.00;7.63;;;;;;;9.95;30.08;97513.47;5053913;28;20231;-81
2022/03/20 08:55:52;;;;;;;10.77;7.53;;;;;;;9.94;30.25;97509.13;5049667;28;20277;-78
2022/03/20 08:58:19;;;;;;;10.87;7.73;;;;;;;10.13;29.65;97511.06;5070881;28;20277;-82
2022/03/20 09:00:46;;;;;;;11.97;7.90;;;;;;;10.22;29.14;97504.50;5064312;28;20274;-82
2022/03/20 09:03:13;;;;;;;10.97;7.87;;;;;;;10.28;28.90;97502.91;5086093;28;20200;-79
2022/03/20 09:05:41;;;;;;;10.17;7.60;;;;;;;10.15;29.21;97502.78;5086098;28;20230;-81
2022/03/20 09:08:09;;;;;;;10.47;8.33;;;;;;;10.40;28.58;97513.94;5063764;28;20205;-81
2022/03/20 09:10:36;;;;;;;11.70;8.03;;;;;;;10.41;28.90;97492.16;5055099;28;20198;-81
2022/03/20 09:13:04;;;;;;;11.23;7.37;;;;;;;10.60;28.44;97490.56;5054381;28;20289;-81
2022/03/20 09:15:32;;;;;;;10.37;7.60;;;;;;;10.60;28.73;97510.31;5062646;28;20264;-81
2022/03/20 09:20:44;;;;;;;9.17;6.83;;;;;;;10.77;28.53;97486.47;5054453;28;20296;-81
2022/03/20 09:23:14;;;;;;;12.03;8.10;;;;;;;10.76;28.72;97489.38;5051812;28;20295;-78
2022/03/20 09:25:42;;;;;;;12.33;7.87;;;;;;;10.76;28.17;97462.34;5055673;28;20260;-81
2022/03/20 09:28:12;;;;;;;10.00;7.57;;;;;;;11.03;28.62;97480.28;5053159;28;20210;-81
2022/03/20 09:30:40;;;;;;;10.10;8.00;;;;;;;10.96;28.73;97474.03;5063053;28;20289;-81
2022/03/20 09:33:09;;;;;;;11.03;7.80;;;;;;;10.94;28.37;97484.22;5053082;28;20260;-80
2022/03/20 09:35:37;;;;;;;10.20;7.23;;;;;;;10.89;28.53;97484.81;5058286;28;20214;-81
2022/03/20 09:38:07;;;;;;;11.13;7.10;;;;;;;11.11;28.63;97482.78;5054701;28;20239;-79
2022/03/20 09:40:37;;;;;;;8.47;7.23;;;;;;;11.10;28.78;97464.91;5053852;28;20210;-80
2022/03/20 09:43:05;;;;;;;11.60;7.60;;;;;;;11.05;28.09;97486.31;5065665;28;20203;-80
2022/03/20 09:45:32;;;;;;;10.60;7.77;;;;;;;11.39;27.17;97488.03;5045753;28;20198;-81
2022/03/20 09:47:59;;;;;;;11.33;7.73;;;;;;;11.40;28.23;97478.84;5031692;28;20219;-80
2022/03/20 09:50:26;;;;;;;11.03;8.23;;;;;;;11.50;28.18;97478.44;5043872;28;20202;-82
2022/03/20 09:52:53;;;;;;;11.50;7.43;;;;;;;11.50;27.99;97473.03;5039113;28;20349;-81
2022/03/20 09:55:21;;;;;;;11.93;8.27;;;;;;;11.63;27.79;97464.91;5039499;28;20210;-82
2022/03/20 09:57:49;;;;;;;10.63;7.83;;;;;;;11.58;27.79;97484.47;5046898;28;20210;-81
2022/03/20 10:00:17;;;;;;;12.00;7.93;;;;;;;11.70;28.11;97468.44;5036940;28;20207;-81
2022/03/20 10:02:44;;;;;;;10.57;7.50;;;;;;;11.62;27.75;97474.91;5041594;28;20210;-81
2022/03/20 10:05:12;;;;;;;13.13;7.73;;;;;;;11.64;27.43;97458.47;5041844;28;20237;-80
2022/03/20 10:07:43;;;;;;;11.50;7.90;;;;;;;11.75;27.99;97468.66;5038051;28;20202;-80
2022/03/20 10:10:16;;;;;;;10.93;8.07;;;;;;;11.98;27.46;97458.22;5041841;28;20202;-82
2022/03/20 10:12:46;;;;;;;8.53;6.70;;;;;;;11.94;27.76;97458.84;5042604;28;20221;-79
2022/03/20 10:15:32;;;;;;;10.23;7.27;;;;;;;11.90;27.27;97455.75;5038001;28;20241;-81
2022/03/20 10:18:11;;;;;;;10.03;7.77;;;;;;;11.98;27.64;97451.97;5039222;28;20206;-81
2022/03/20 10:20:41;;;;;;;11.80;7.57;;;;;;;12.13;27.33;97453.38;5039923;28;20283;-81
2022/03/20 10:23:28;;;;;;;9.70;7.43;;;;;;;12.24;27.24;97448.38;5039683;28;20198;-80
2022/03/20 10:25:56;;;;;;;10.20;7.43;;;;;;;12.23;27.67;97452.94;5052455;28;20256;-80
2022/03/20 10:28:23;;;;;;;9.30;7.27;;;;;;;12.19;27.41;97443.56;5034858;28;20199;-79
2022/03/20 10:30:59;;;;;;;9.80;7.80;;;;;;;12.29;27.50;97440.41;5036999;28;20198;-81
2022/03/20 10:33:26;;;;;;;9.23;6.93;;;;;;;12.37;26.86;97437.47;5043493;28;20336;-79
2022/03/20 10:36:12;;;;;;;10.70;8.07;;;;;;;12.49;26.45;97438.47;5054039;28;20217;-81
2022/03/20 10:38:41;;;;;;;9.90;7.60;;;;;;;12.51;26.40;97448.00;5031926;28;20202;-82
2022/03/20 10:41:22;;;;;;;8.33;6.87;;;;;;;12.55;26.50;97442.19;5044702;28;20210;-82
2022/03/20 10:43:51;;;;;;;10.17;7.20;;;;;;;12.69;26.39;97439.16;5046785;28;20247;-77
2022/03/20 10:46:26;;;;;;;10.23;6.87;;;;;;;12.69;26.12;97433.75;5035185;28;20206;-80
2022/03/20 10:48:55;;;;;;;11.07;7.73;;;;;;;12.78;26.00;97427.03;5040278;28;20210;-81
2022/03/20 10:51:39;;;;;;;9.40;7.20;;;;;;;12.90;26.37;97427.19;5036893;28;20212;-81
2022/03/20 10:54:10;;;;;;;11.07;7.50;;;;;;;13.30;25.59;97438.59;5033332;28;20254;-81
2022/03/20 10:56:37;;;;;;;8.33;6.90;;;;;;;13.23;25.78;97413.41;5040717;28;20224;-80
2022/03/20 10:59:15;;;;;;;9.17;7.00;;;;;;;13.17;25.70;97425.16;5042276;28;20207;-80
2022/03/20 11:01:44;;;;;;;8.90;6.80;;;;;;;12.89;25.86;97439.91;5042093;28;20252;-81
2022/03/20 11:04:13;;;;;;;8.70;6.73;;;;;;;12.95;25.78;97416.50;5040627;28;20206;-81
2022/03/20 11:06:45;;;;;;;8.37;7.07;;;;;;;13.11;25.96;97444.94;5054018;28;20202;-80
2022/03/20 11:09:12;;;;;;;8.87;7.10;;;;;;;13.08;26.32;97421.00;5043173;28;20203;-83
2022/03/20 11:11:44;;;;;;;8.90;6.80;;;;;;;13.19;25.46;97433.88;5055655;28;20217;-79
2022/03/20 11:14:15;;;;;;;8.80;7.03;;;;;;;13.17;25.52;97441.41;5045737;28;20226;-81
2022/03/20 11:16:44;;;;;;;9.33;7.30;;;;;;;12.95;26.02;97431.94;5044613;28;20250;-80
2022/03/20 11:19:15;;;;;;;10.33;7.10;;;;;;;13.14;25.92;97426.41;5035291;28;20223;-81
2022/03/20 11:21:45;;;;;;;8.77;6.63;;;;;;;13.58;25.11;97417.28;5045646;28;20206;-78
2022/03/20 11:24:16;;;;;;;9.43;7.23;;;;;;;13.65;25.14;97417.19;5038646;28;20281;-81
2022/03/20 11:26:45;;;;;;;8.70;7.10;;;;;;;13.66;25.24;97418.03;5051030;28;20206;-79
2022/03/20 11:29:13;;;;;;;9.70;6.80;;;;;;;13.52;25.28;97412.75;5033607;28;20217;-80
2022/03/20 11:31:41;;;;;;;8.87;6.73;;;;;;;13.76;26.06;97408.34;5041332;28;20230;-81
2022/03/20 11:34:10;;;;;;;8.10;6.67;;;;;;;13.74;24.79;97425.88;5039693;28;20242;-77
2022/03/20 13:55:55;;;;;;;8.90;6.57;;;;;;;15.42;23.06;97283.41;6238205;23;20243;-76
2022/03/20 13:58:22;;;;;;;7.07;6.10;;;;;;;15.16;23.68;97297.47;6240504;23;20170;-76
2022/03/20 14:01:00;;;;;;;9.30;6.90;;;;;;;15.09;24.04;97292.16;6237608;23;20199;-76
2022/03/20 14:03:28;;;;;;;11.53;7.10;;;;;;;15.11;23.79;97286.50;6211597;23;20254;-77
2022/03/20 14:05:56;;;;;;;9.73;6.97;;;;;;;15.29;23.76;97289.09;6212247;23;20170;-78
2022/03/20 14:08:23;;;;;;;8.50;6.60;;;;;;;15.14;24.01;97283.31;6211584;23;20196;-77
2022/03/20 14:10:53;;;;;;;7.63;6.20;;;;;;;15.21;24.24;97284.00;6211570;23;20185;-78
2022/03/20 14:13:24;;;;;;;9.00;6.33;;;;;;;15.02;23.68;97286.00;6212589;23;20198;-77
2022/03/20 14:15:56;;;;;;;8.37;6.50;;;;;;;15.22;23.35;97271.25;6238467;23;20185;-78
2022/03/20 14:18:23;;;;;;;8.23;6.17;;;;;;;15.43;23.83;97285.06;6211476;23;20180;-77
2022/03/20 14:20:50;;;;;;;8.70;6.50;;;;;;;14.94;24.27;97278.19;6214503;23;20206;-77
2022/03/20 14:23:18;;;;;;;9.23;6.30;;;;;;;15.21;24.17;97269.59;6213830;23;20227;-78
2022/03/20 14:25:48;;;;;;;6.57;5.90;;;;;;;15.44;23.23;97270.38;6212593;23;20173;-78
2022/03/20 14:28:17;;;;;;;8.17;6.00;;;;;;;15.54;23.37;97277.97;6212933;23;20216;-77
2022/03/20 14:39:30;;;;;;;7.80;5.80;;;;;;;14.93;24.08;97281.97;6212515;23;20201;-77
2022/03/20 14:41:58;;;;;;;8.43;6.77;;;;;;;14.94;23.89;97278.19;6209868;23;20212;-77
2022/03/20 14:44:26;;;;;;;8.77;6.10;;;;;;;15.28;24.03;97276.56;6209836;23;20169;-78
2022/03/20 14:46:56;;;;;;;7.43;5.50;;;;;;;15.35;23.72;97273.69;6213552;23;20237;-77
2022/03/20 14:49:27;;;;;;;10.23;6.77;;;;;;;15.32;23.85;97272.28;6207790;23;20184;-79
2022/03/20 14:51:55;;;;;;;8.33;6.27;;;;;;;15.42;23.69;97266.22;6209586;23;20178;-77
2022/03/20 14:54:23;;;;;;;7.37;5.93;;;;;;;15.44;23.85;97280.44;6220337;23;20201;-78
2022/03/20 14:56:51;;;;;;;9.63;5.60;;;;;;;14.99;23.95;97281.03;6238977;22;20197;-77
2022/03/20 14:59:21;;;;;;;6.83;5.93;;;;;;;15.38;24.15;97284.94;6239747;22;20194;-78
2022/03/20 15:01:49;;;;;;;8.00;6.13;;;;;;;15.02;23.79;97271.59;6236749;22;20189;-78
2022/03/20 15:04:19;;;;;;;7.60;6.40;;;;;;;15.09;24.33;97270.41;6243287;22;20170;-78
2022/03/20 15:06:48;;;;;;;7.80;6.10;;;;;;;14.95;24.52;97277.16;6238929;22;20223;-76
2022/03/20 15:12:01;;;;;;;7.90;6.07;;;;;;;14.89;24.36;97272.63;6256079;23;20174;-82
2022/03/20 15:14:29;;;;;;;7.37;6.00;;;;;;;14.88;24.12;97275.59;6253981;22;20162;-80
2022/03/20 15:16:56;;;;;;;10.83;5.60;;;;;;;14.79;24.02;97261.53;6251737;23;20202;-82
2022/03/20 15:19:25;;;;;;;8.47;5.93;;;;;;;14.96;24.52;97272.53;6249486;22;20205;-82